Time;durP1;ratioP1;P1;durP2;ratioP2;P2;SDS_P1;SDS_P2;PMS_P1;PMS_P2;Temp;Humidity;BMP_temperature;BMP_pressure;BME280_temperature;BME280_humidity;BME280_pressure;Samples;Min_cycle;Max_cycle;Signal;HPM_P1;HPM_P2
2023/07/08 00:02:12;;;;;;;8.90;4.45;;;17.80;96.30;;;;;;5018451;28;20080;-63
2023/07/08 00:04:39;;;;;;;6.65;3.92;;;17.80;96.30;;;;;;5019162;28;20053;-63
2023/07/08 00:07:09;;;;;;;9.20;4.80;;;17.70;96.30;;;;;;5032043;28;20033;-63
2023/07/08 00:09:34;;;;;;;6.38;4.38;;;17.70;96.30;;;;;;5036527;28;20094;-63
2023/07/08 00:12:00;;;;;;;6.75;4.38;;;17.80;96.30;;;;;;5038468;28;20041;-63
2023/07/08 00:14:26;;;;;;;7.82;3.85;;;17.70;96.50;;;;;;5029560;28;20048;-63
2023/07/08 00:16:51;;;;;;;7.80;4.55;;;17.70;96.70;;;;;;5037380;28;20069;-63
2023/07/08 00:19:24;;;;;;;6.45;4.13;;;17.60;96.80;;;;;;5041242;28;20044;-63
2023/07/08 00:21:51;;;;;;;6.18;4.45;;;17.60;96.70;;;;;;5039941;28;20037;-63
2023/07/08 00:24:17;;;;;;;7.90;3.97;;;17.60;96.80;;;;;;5024758;28;20295;-63
2023/07/08 00:26:43;;;;;;;7.50;4.38;;;17.50;96.90;;;;;;5022152;28;20305;-63
2023/07/08 00:29:10;;;;;;;7.35;4.57;;;17.50;96.90;;;;;;5036993;28;20041;-63
2023/07/08 00:31:35;;;;;;;7.65;3.95;;;17.50;97.00;;;;;;5041570;28;20407;-63
2023/07/08 00:34:03;;;;;;;7.78;4.40;;;17.50;97.00;;;;;;5040891;28;20052;-63
2023/07/08 00:36:29;;;;;;;7.50;4.70;;;17.50;97.20;;;;;;5021644;28;20056;-63
2023/07/08 00:38:56;;;;;;;9.65;5.03;;;17.50;97.20;;;;;;5035938;28;20084;-63
2023/07/08 00:41:36;;;;;;;7.53;4.30;;;17.50;97.20;;;;;;5038261;28;20048;-63
2023/07/08 00:44:02;;;;;;;6.72;4.57;;;17.50;97.30;;;;;;5016672;28;20072;-63
2023/07/08 00:46:29;;;;;;;7.90;4.22;;;17.40;97.30;;;;;;5029534;28;20116;-63
2023/07/08 00:49:07;;;;;;;7.50;4.07;;;17.40;97.40;;;;;;5042757;28;20115;-63
2023/07/08 00:51:40;;;;;;;6.07;4.35;;;17.40;97.40;;;;;;5043915;28;20120;-63
2023/07/08 00:54:18;;;;;;;7.45;4.85;;;17.40;97.40;;;;;;5044743;28;20107;-63
2023/07/08 00:56:43;;;;;;;8.43;4.03;;;17.40;97.50;;;;;;5040903;28;20055;-63
2023/07/08 00:59:17;;;;;;;7.05;4.40;;;17.40;97.70;;;;;;5032546;28;20120;-63
2023/07/08 01:01:43;;;;;;;9.77;4.60;;;17.30;97.80;;;;;;5032440;28;20052;-63
2023/07/08 01:04:16;;;;;;;8.10;5.07;;;17.30;97.80;;;;;;5042998;28;20080;-62
2023/07/08 01:06:46;;;;;;;11.05;4.70;;;17.30;97.80;;;;;;5038159;28;20033;-63
2023/07/08 01:09:15;;;;;;;7.63;4.63;;;17.30;97.90;;;;;;5032271;28;20049;-63
2023/07/08 01:11:41;;;;;;;6.35;4.20;;;17.30;98.00;;;;;;5035778;28;20032;-63
2023/07/08 01:14:10;;;;;;;8.00;4.60;;;17.20;98.00;;;;;;5019048;28;20084;-63
2023/07/08 01:16:37;;;;;;;6.93;4.35;;;17.20;98.20;;;;;;5046480;28;20037;-63
2023/07/08 01:19:06;;;;;;;11.73;5.30;;;17.20;98.10;;;;;;5043249;28;20421;-63
2023/07/08 01:21:35;;;;;;;5.07;3.97;;;17.20;98.10;;;;;;5036551;28;20395;-63
2023/07/08 01:24:06;;;;;;;7.88;4.35;;;17.20;98.10;;;;;;5044943;28;20400;-63
2023/07/08 01:26:35;;;;;;;11.18;4.80;;;17.20;98.10;;;;;;5041141;28;20383;-63
2023/07/08 01:29:02;;;;;;;8.13;4.38;;;17.20;98.20;;;;;;5040113;28;20049;-63
2023/07/08 01:31:28;;;;;;;7.05;4.65;;;17.20;98.20;;;;;;5037230;28;20589;-62
2023/07/08 01:33:54;;;;;;;7.32;4.55;;;17.20;98.20;;;;;;5042724;28;20115;-63
2023/07/08 01:36:21;;;;;;;7.72;4.22;;;17.20;98.30;;;;;;5043305;28;20129;-63
2023/07/08 01:38:47;;;;;;;5.35;4.15;;;17.20;98.50;;;;;;5023553;28;20047;-63
2023/07/08 01:41:15;;;;;;;9.30;5.05;;;17.10;98.50;;;;;;5040933;28;20114;-63
2023/07/08 01:43:41;;;;;;;10.35;4.80;;;17.20;98.50;;;;;;5046509;28;20075;-63
2023/07/08 01:46:23;;;;;;;6.18;4.30;;;17.20;98.60;;;;;;5022891;28;20076;-63
2023/07/08 01:48:54;;;;;;;8.65;4.82;;;17.10;98.80;;;;;;5038482;28;20057;-63
2023/07/08 01:51:21;;;;;;;8.25;4.90;;;17.10;98.70;;;;;;5040685;28;20151;-63
2023/07/08 01:53:47;;;;;;;6.75;3.97;;;17.10;98.80;;;;;;5025384;28;20301;-63
2023/07/08 01:56:14;;;;;;;10.88;4.93;;;17.10;98.80;;;;;;5027848;28;20234;-63
2023/07/08 01:58:41;;;;;;;6.50;4.53;;;17.10;98.80;;;;;;5035884;28;20295;-64
2023/07/08 02:01:07;;;;;;;10.02;4.82;;;17.00;98.80;;;;;;5021897;28;20073;-63
2023/07/08 02:03:34;;;;;;;8.38;5.00;;;17.00;98.90;;;;;;5041014;28;20045;-63
2023/07/08 02:05:59;;;;;;;8.90;4.93;;;17.00;99.00;;;;;;5039126;28;20570;-63
2023/07/08 02:08:26;;;;;;;8.88;5.18;;;17.00;99.20;;;;;;5021414;28;20036;-63
2023/07/08 02:10:57;;;;;;;8.13;4.35;;;17.00;99.20;;;;;;5040755;28;20041;-63
2023/07/08 02:13:23;;;;;;;7.47;4.50;;;16.90;99.30;;;;;;5049808;28;20075;-63
2023/07/08 02:15:50;;;;;;;7.47;4.80;;;16.90;99.40;;;;;;5038751;28;20115;-63
2023/07/08 02:18:18;;;;;;;8.93;4.75;;;16.90;99.40;;;;;;5037314;28;20460;-63
2023/07/08 02:20:44;;;;;;;8.27;4.95;;;16.90;99.50;;;;;;5035609;28;20053;-63
2023/07/08 02:23:10;;;;;;;6.65;4.55;;;16.80;99.60;;;;;;5021940;28;20500;-63
2023/07/08 02:25:36;;;;;;;8.80;5.38;;;16.80;99.90;;;;;;5034688;28;20111;-63
2023/07/08 02:28:03;;;;;;;10.77;5.55;;;16.80;99.80;;;;;;5047242;28;20192;-63
2023/07/08 02:30:29;;;;;;;9.45;5.25;;;16.70;99.90;;;;;;5043968;28;20041;-63
2023/07/08 02:32:57;;;;;;;8.07;5.05;;;16.70;99.90;;;;;;5042830;28;20757;-63
2023/07/08 02:35:28;;;;;;;7.28;5.25;;;16.70;99.90;;;;;;5043570;28;20033;-63
2023/07/08 02:37:56;;;;;;;6.97;5.15;;;16.70;99.90;;;;;;5029718;28;20071;-63
2023/07/08 02:40:22;;;;;;;7.32;5.28;;;16.60;99.90;;;;;;5045668;28;20040;-63
2023/07/08 02:42:49;;;;;;;13.82;5.82;;;16.60;99.90;;;;;;5038922;28;20064;-63
2023/07/08 02:45:15;;;;;;;8.88;5.25;;;16.60;99.90;;;;;;5046154;28;20109;-63
2023/07/08 02:47:41;;;;;;;7.65;5.05;;;16.60;99.90;;;;;;5036530;28;20140;-64
2023/07/08 02:50:08;;;;;;;7.13;5.32;;;16.60;99.90;;;;;;5039238;28;20041;-63
2023/07/08 02:52:34;;;;;;;10.88;5.65;;;16.50;99.90;;;;;;5019816;28;20214;-62
2023/07/08 02:55:00;;;;;;;8.52;5.57;;;16.60;99.90;;;;;;5047255;28;20578;-63
2023/07/08 02:57:25;;;;;;;8.30;5.18;;;16.50;99.90;;;;;;5041484;28;20268;-63
2023/07/08 02:59:51;;;;;;;9.13;5.25;;;16.50;99.90;;;;;;5041841;28;20036;-63
2023/07/08 03:02:17;;;;;;;8.98;5.85;;;16.50;99.90;;;;;;5023113;28;20041;-63
2023/07/08 03:04:43;;;;;;;7.75;5.35;;;16.50;99.90;;;;;;5043366;28;20167;-63
2023/07/08 03:07:11;;;;;;;11.85;5.60;;;16.40;99.90;;;;;;5039706;28;20038;-63
2023/07/08 03:09:40;;;;;;;10.10;6.30;;;16.40;99.90;;;;;;5039275;28;20049;-63
2023/07/08 03:12:08;;;;;;;7.60;5.20;;;16.40;99.90;;;;;;5025098;28;20045;-63
2023/07/08 03:14:34;;;;;;;10.40;5.40;;;16.40;99.90;;;;;;5036179;28;20566;-63
2023/07/08 03:17:00;;;;;;;8.45;6.05;;;16.40;99.90;;;;;;5033477;28;20080;-63
2023/07/08 03:19:26;;;;;;;8.48;5.88;;;16.40;99.90;;;;;;5037487;28;20458;-63
2023/07/08 03:21:52;;;;;;;7.00;5.30;;;16.40;99.90;;;;;;5036488;28;20025;-63
2023/07/08 03:24:18;;;;;;;9.70;6.00;;;16.40;99.90;;;;;;5042505;28;20041;-63
2023/07/08 03:26:45;;;;;;;10.95;5.93;;;16.40;99.90;;;;;;5036573;28;20049;-63
2023/07/08 03:29:16;;;;;;;7.72;5.80;;;16.40;99.90;;;;;;5037546;28;20676;-63
2023/07/08 03:31:43;;;;;;;8.65;5.53;;;16.40;99.90;;;;;;5039255;28;20041;-63
2023/07/08 03:34:13;;;;;;;9.35;5.90;;;16.40;99.90;;;;;;5037826;28;20045;-63
2023/07/08 03:36:51;;;;;;;10.25;5.95;;;16.40;99.90;;;;;;5020389;28;20409;-63
2023/07/08 03:39:18;;;;;;;8.35;6.40;;;16.40;99.90;;;;;;5035916;28;20080;-63
2023/07/08 03:41:45;;;;;;;13.35;6.72;;;16.30;99.90;;;;;;5040298;28;20051;-63
2023/07/08 03:44:11;;;;;;;8.80;5.53;;;16.30;99.90;;;;;;5015336;28;20260;-63
2023/07/08 03:46:37;;;;;;;9.43;5.18;;;16.30;99.90;;;;;;5031509;28;20052;-63
2023/07/08 03:49:02;;;;;;;8.98;5.90;;;16.30;99.90;;;;;;5032176;28;20405;-63
2023/07/08 03:51:32;;;;;;;9.65;6.00;;;16.30;99.90;;;;;;5038853;28;20704;-63
2023/07/08 03:53:58;;;;;;;9.98;5.90;;;16.40;99.90;;;;;;5042197;28;20067;-63
2023/07/08 03:56:24;;;;;;;10.00;5.57;;;16.40;99.90;;;;;;5034377;28;20504;-63
2023/07/08 03:58:50;;;;;;;10.45;5.45;;;16.40;99.90;;;;;;5035649;28;20047;-63
2023/07/08 04:01:20;;;;;;;10.38;5.80;;;16.40;99.90;;;;;;5040762;28;20539;-63
2023/07/08 04:03:46;;;;;;;11.30;5.78;;;16.40;99.90;;;;;;5023796;28;20123;-63
2023/07/08 04:06:12;;;;;;;13.30;6.07;;;16.40;99.90;;;;;;5038408;28;20037;-63
2023/07/08 04:08:38;;;;;;;11.18;5.68;;;16.40;99.90;;;;;;5037287;28;20033;-63
2023/07/08 04:11:04;;;;;;;8.02;5.90;;;16.50;99.90;;;;;;5019125;28;20116;-62
2023/07/08 04:13:29;;;;;;;9.40;5.85;;;16.50;99.90;;;;;;5045720;28;20040;-63
2023/07/08 04:16:02;;;;;;;9.07;5.57;;;16.50;99.90;;;;;;5030608;28;20036;-63
2023/07/08 04:18:28;;;;;;;8.55;5.80;;;16.50;99.90;;;;;;5041331;28;20041;-63
2023/07/08 04:20:54;;;;;;;11.43;6.38;;;16.50;99.90;;;;;;5029642;28;20096;-63
2023/07/08 04:23:20;;;;;;;6.97;5.75;;;16.50;99.90;;;;;;5038993;28;20124;-63
2023/07/08 04:25:48;;;;;;;6.90;5.30;;;16.50;99.90;;;;;;5039184;28;20036;-63
2023/07/08 04:28:14;;;;;;;7.95;5.38;;;16.50;99.90;;;;;;5041671;28;20112;-64
2023/07/08 04:30:41;;;;;;;9.15;6.68;;;16.50;99.90;;;;;;5025533;28;20135;-63
2023/07/08 04:33:13;;;;;;;8.73;5.53;;;16.60;99.90;;;;;;5037295;28;20057;-63
2023/07/08 04:35:39;;;;;;;9.40;6.25;;;16.60;99.90;;;;;;5035308;28;20053;-64
2023/07/08 04:38:09;;;;;;;8.68;5.72;;;16.60;99.90;;;;;;5039276;28;20087;-63
2023/07/08 04:40:39;;;;;;;8.52;5.50;;;16.60;99.90;;;;;;5040615;28;20032;-63
2023/07/08 04:43:05;;;;;;;10.30;5.70;;;16.70;99.90;;;;;;5016926;28;20049;-63
2023/07/08 04:45:31;;;;;;;8.68;5.57;;;16.70;99.90;;;;;;5036498;28;20123;-63
2023/07/08 04:47:57;;;;;;;7.82;5.25;;;16.70;99.90;;;;;;5045375;28;20152;-63
2023/07/08 04:50:23;;;;;;;7.97;5.95;;;16.80;99.90;;;;;;5037571;28;20037;-63
2023/07/08 04:52:49;;;;;;;6.90;5.13;;;16.80;99.90;;;;;;5048542;28;20170;-63
2023/07/08 04:55:15;;;;;;;9.07;5.88;;;16.90;99.90;;;;;;5038569;28;20400;-63
2023/07/08 04:57:41;;;;;;;8.77;5.40;;;16.90;99.90;;;;;;5044182;28;20063;-63
2023/07/08 05:00:12;;;;;;;8.63;5.72;;;16.90;99.90;;;;;;5040939;28;20049;-63
2023/07/08 05:02:38;;;;;;;8.20;5.03;;;17.00;99.90;;;;;;5045392;28;20068;-63
2023/07/08 05:05:04;;;;;;;8.95;5.45;;;17.00;99.90;;;;;;5037247;28;20076;-63
2023/07/08 05:07:30;;;;;;;8.52;5.43;;;17.10;99.90;;;;;;5026431;28;20122;-63
2023/07/08 05:09:56;;;;;;;9.38;6.10;;;17.10;99.90;;;;;;5041341;28;20070;-63
2023/07/08 05:12:21;;;;;;;7.60;5.82;;;17.10;99.90;;;;;;5047558;28;20124;-63
2023/07/08 05:14:47;;;;;;;8.75;6.05;;;17.20;99.90;;;;;;5049389;28;20155;-63
2023/07/08 05:17:13;;;;;;;10.52;6.40;;;17.20;99.90;;;;;;5053074;28;20609;-63
2023/07/08 05:19:41;;;;;;;9.27;5.75;;;17.30;99.90;;;;;;5046486;28;20033;-64
2023/07/08 05:22:06;;;;;;;8.43;5.95;;;17.40;99.90;;;;;;5042619;28;20048;-63
2023/07/08 05:24:32;;;;;;;11.80;5.45;;;17.40;99.90;;;;;;5012495;28;20404;-63
2023/07/08 05:26:59;;;;;;;8.90;5.53;;;17.50;99.90;;;;;;5041444;28;20130;-63
2023/07/08 05:29:25;;;;;;;10.50;5.57;;;17.60;99.90;;;;;;5047051;28;20045;-63
2023/07/08 05:31:50;;;;;;;9.85;5.60;;;17.60;99.90;;;;;;5040910;28;20041;-62
2023/07/08 05:34:16;;;;;;;9.38;5.25;;;17.70;99.90;;;;;;5047129;28;20084;-63
2023/07/08 05:36:42;;;;;;;6.35;4.90;;;17.80;99.90;;;;;;5047213;28;20672;-63
2023/07/08 05:39:08;;;;;;;6.97;4.80;;;17.90;99.90;;;;;;5017990;28;20040;-63
2023/07/08 05:41:33;;;;;;;7.38;4.88;;;17.90;99.90;;;;;;5037611;28;20049;-63
2023/07/08 05:43:59;;;;;;;9.57;5.40;;;18.10;99.90;;;;;;5044561;28;20091;-63
2023/07/08 05:46:25;;;;;;;7.53;5.45;;;18.10;99.90;;;;;;5036886;28;20049;-63
2023/07/08 05:48:50;;;;;;;8.90;5.00;;;18.20;99.90;;;;;;5037356;28;20050;-63
2023/07/08 05:51:17;;;;;;;7.55;4.72;;;18.30;99.90;;;;;;5014756;28;20064;-63
2023/07/08 05:53:42;;;;;;;9.82;4.90;;;18.40;99.90;;;;;;5049890;28;20041;-63
2023/07/08 05:56:08;;;;;;;7.20;4.90;;;18.50;99.90;;;;;;5022055;28;20029;-63
2023/07/08 05:58:34;;;;;;;9.25;5.00;;;18.60;99.90;;;;;;5043249;28;20055;-63
2023/07/08 06:01:00;;;;;;;8.98;5.13;;;18.70;99.90;;;;;;5042423;28;20040;-63
2023/07/08 06:03:26;;;;;;;7.43;4.70;;;18.80;99.90;;;;;;5011989;28;20455;-63
2023/07/08 06:05:52;;;;;;;8.27;4.70;;;18.90;99.90;;;;;;5038748;28;20107;-63
2023/07/08 06:08:18;;;;;;;6.72;4.00;;;19.00;99.90;;;;;;5043757;28;20052;-62
2023/07/08 06:10:45;;;;;;;6.30;4.55;;;19.10;99.90;;;;;;5047635;28;20037;-63
2023/07/08 06:13:11;;;;;;;7.00;4.93;;;19.10;99.90;;;;;;5023914;28;20102;-63
2023/07/08 06:15:38;;;;;;;6.60;4.55;;;19.20;99.90;;;;;;5017886;28;20077;-63
2023/07/08 06:18:03;;;;;;;6.13;3.83;;;19.30;99.90;;;;;;5041877;28;20041;-63
2023/07/08 06:20:30;;;;;;;7.68;4.10;;;19.40;99.90;;;;;;5035743;28;20037;-64
2023/07/08 06:22:56;;;;;;;8.95;4.50;;;19.50;99.90;;;;;;5045211;28;20037;-63
2023/07/08 06:25:21;;;;;;;8.32;4.32;;;19.60;99.90;;;;;;5042789;28;20777;-63
2023/07/08 06:27:47;;;;;;;7.35;3.90;;;19.70;99.90;;;;;;5042535;28;20120;-63
2023/07/08 06:30:13;;;;;;;6.80;3.85;;;19.80;99.90;;;;;;5045365;28;20184;-63
2023/07/08 06:32:39;;;;;;;6.57;3.67;;;19.90;99.90;;;;;;5038112;28;20401;-63
2023/07/08 06:35:05;;;;;;;5.55;3.67;;;20.00;99.90;;;;;;5039444;28;20049;-64
2023/07/08 06:37:31;;;;;;;5.78;3.53;;;20.10;99.70;;;;;;5039121;28;20076;-63
2023/07/08 06:39:56;;;;;;;6.70;3.85;;;20.20;99.40;;;;;;5037401;28;20041;-63
2023/07/08 06:42:22;;;;;;;5.55;3.63;;;20.30;99.50;;;;;;5031262;28;20045;-63
2023/07/08 06:44:51;;;;;;;5.82;3.67;;;20.40;99.20;;;;;;5039199;28;20041;-64
2023/07/08 06:47:21;;;;;;;9.93;4.95;;;20.50;98.60;;;;;;5043781;28;20428;-63
2023/07/08 06:49:47;;;;;;;5.30;3.58;;;20.50;98.40;;;;;;5033512;28;20116;-63
2023/07/08 06:52:14;;;;;;;6.47;3.67;;;20.60;98.50;;;;;;5038379;28;20076;-63
2023/07/08 06:54:40;;;;;;;7.32;4.00;;;20.60;98.30;;;;;;5018994;28;20490;-63
2023/07/08 06:57:06;;;;;;;6.07;4.13;;;20.70;98.40;;;;;;5038790;28;20103;-63
2023/07/08 06:59:32;;;;;;;6.00;3.97;;;20.90;98.30;;;;;;5041237;28;20045;-63
2023/07/08 07:01:58;;;;;;;4.38;3.17;;;21.00;97.80;;;;;;5044766;28;20068;-63
2023/07/08 07:04:23;;;;;;;6.80;3.45;;;21.10;97.70;;;;;;5027064;28;20083;-63
2023/07/08 07:06:49;;;;;;;6.63;3.65;;;21.10;97.80;;;;;;5027064;28;20090;-63
2023/07/08 07:09:15;;;;;;;7.15;3.63;;;21.20;97.30;;;;;;5037369;28;20040;-63
2023/07/08 07:11:40;;;;;;;6.93;3.53;;;21.20;97.40;;;;;;5043644;28;20047;-63
2023/07/08 07:14:06;;;;;;;6.25;3.53;;;21.40;97.40;;;;;;5045657;28;20692;-63
2023/07/08 07:16:32;;;;;;;6.82;3.70;;;21.50;97.10;;;;;;5037843;28;20033;-63
2023/07/08 07:18:57;;;;;;;4.07;3.08;;;21.60;97.20;;;;;;5045938;28;20044;-63
2023/07/08 07:21:23;;;;;;;5.88;3.67;;;21.80;97.30;;;;;;5040581;28;20033;-64
2023/07/08 07:23:49;;;;;;;5.97;3.78;;;21.90;96.70;;;;;;5037086;28;20038;-64
2023/07/08 07:26:15;;;;;;;6.03;3.22;;;22.00;96.90;;;;;;5033729;28;20065;-64
2023/07/08 07:28:41;;;;;;;5.28;3.35;;;22.00;96.20;;;;;;5044048;28;20037;-64
2023/07/08 07:31:07;;;;;;;6.15;3.47;;;22.10;96.50;;;;;;5037009;28;20079;-63
2023/07/08 07:33:33;;;;;;;6.40;3.88;;;22.30;96.30;;;;;;5022794;28;20084;-63
2023/07/08 07:35:59;;;;;;;6.57;3.65;;;22.40;96.20;;;;;;5041090;28;20115;-63
2023/07/08 07:38:28;;;;;;;6.60;3.53;;;22.40;95.70;;;;;;5039460;28;20029;-63
2023/07/08 07:40:55;;;;;;;5.95;3.40;;;22.50;95.70;;;;;;5027141;28;20103;-64
2023/07/08 07:43:21;;;;;;;5.53;3.47;;;22.60;95.90;;;;;;5036984;28;20040;-63
2023/07/08 07:45:56;;;;;;;5.35;3.85;;;22.70;95.80;;;;;;5036660;28;20102;-64
2023/07/08 07:48:24;;;;;;;7.38;3.58;;;22.80;95.60;;;;;;5039121;28;20109;-63
2023/07/08 07:50:51;;;;;;;5.90;3.38;;;22.80;95.60;;;;;;5042932;28;20615;-63
2023/07/08 07:53:17;;;;;;;4.78;2.72;;;22.90;95.20;;;;;;5041069;28;20488;-63
2023/07/08 07:55:43;;;;;;;5.45;3.45;;;22.90;95.40;;;;;;5036781;28;20115;-63
2023/07/08 07:58:11;;;;;;;5.68;3.28;;;23.00;95.70;;;;;;5032619;28;20176;-63
2023/07/08 08:00:38;;;;;;;7.72;3.88;;;23.10;95.10;;;;;;5041379;28;20041;-62
2023/07/08 08:03:04;;;;;;;7.05;3.38;;;23.20;95.10;;;;;;5041315;28;20048;-63
2023/07/08 08:05:30;;;;;;;7.47;3.50;;;23.30;95.30;;;;;;5040925;28;20037;-63
2023/07/08 08:07:56;;;;;;;6.03;3.10;;;23.40;95.30;;;;;;5037199;28;20039;-61
2023/07/08 08:10:22;;;;;;;5.95;3.63;;;23.50;95.10;;;;;;5040830;28;20063;-64
2023/07/08 08:12:50;;;;;;;6.35;3.42;;;23.60;94.40;;;;;;5042255;28;20353;-63
2023/07/08 08:15:16;;;;;;;5.55;3.50;;;23.60;94.60;;;;;;5037316;28;20056;-64
2023/07/08 08:17:47;;;;;;;5.80;3.47;;;23.70;94.50;;;;;;5034391;28;20631;-64
2023/07/08 08:20:13;;;;;;;6.90;3.35;;;23.80;94.50;;;;;;5025293;28;20033;-63
2023/07/08 08:22:39;;;;;;;6.50;3.90;;;23.90;94.50;;;;;;5040095;28;20098;-63
2023/07/08 08:25:05;;;;;;;7.13;3.60;;;23.90;94.60;;;;;;5045571;28;20037;-63
2023/07/08 08:27:30;;;;;;;6.28;3.20;;;24.00;94.60;;;;;;5036642;28;20041;-63
2023/07/08 08:29:56;;;;;;;5.75;3.30;;;24.10;94.20;;;;;;5040585;28;20033;-63
2023/07/08 08:32:22;;;;;;;6.53;3.63;;;24.20;94.10;;;;;;5034125;28;20041;-63
2023/07/08 08:34:47;;;;;;;5.93;3.40;;;24.30;94.10;;;;;;5038889;28;20492;-63
2023/07/08 08:37:14;;;;;;;6.40;3.38;;;24.40;93.90;;;;;;5040545;28;20033;-63
2023/07/08 08:39:40;;;;;;;5.82;3.30;;;24.50;93.70;;;;;;5023171;28;20120;-62
2023/07/08 08:42:20;;;;;;;6.30;3.47;;;24.60;94.00;;;;;;5039210;28;20156;-61
2023/07/08 08:44:46;;;;;;;4.57;3.17;;;24.80;93.50;;;;;;5025349;28;20342;-63
2023/07/08 08:47:38;;;;;;;5.18;3.63;;;24.80;93.80;;;;;;5027609;28;20672;-63
2023/07/08 08:50:16;;;;;;;8.55;3.80;;;24.90;93.70;;;;;;5036355;28;20129;-63
2023/07/08 08:52:42;;;;;;;7.25;3.05;;;25.00;93.10;;;;;;5030489;28;20037;-63
2023/07/08 08:55:13;;;;;;;8.90;3.35;;;25.00;93.20;;;;;;5046092;28;20039;-63
2023/07/08 08:57:45;;;;;;;7.55;3.35;;;25.20;93.40;;;;;;5041385;28;20076;-62
2023/07/08 09:00:16;;;;;;;8.23;3.50;;;25.30;93.00;;;;;;5036536;28;20453;-62
2023/07/08 09:02:53;;;;;;;5.95;3.10;;;25.50;93.10;;;;;;5047271;28;20074;-63
2023/07/08 09:05:19;;;;;;;5.60;3.05;;;25.60;93.10;;;;;;5039604;28;20116;-62
2023/07/08 09:08:08;;;;;;;7.13;3.83;;;25.70;92.80;;;;;;5019621;28;20155;-62
2023/07/08 09:10:55;;;;;;;6.75;3.50;;;25.70;93.20;;;;;;5032399;28;20497;-61
2023/07/08 09:13:35;;;;;;;4.18;3.30;;;25.80;93.10;;;;;;5031774;28;20041;-63
2023/07/08 09:16:06;;;;;;;7.55;3.65;;;25.90;91.60;;;;;;5035606;28;20049;-63
2023/07/08 09:18:45;;;;;;;5.53;3.03;;;25.90;92.50;;;;;;5040108;28;20041;-62
2023/07/08 09:21:20;;;;;;;7.95;3.28;;;26.10;92.90;;;;;;5037047;28;20043;-62
2023/07/08 09:23:49;;;;;;;5.50;3.45;;;26.20;92.50;;;;;;5038008;28;20048;-63
2023/07/08 09:26:21;;;;;;;4.78;3.08;;;26.30;92.10;;;;;;5033348;28;20040;-62
2023/07/08 09:28:46;;;;;;;4.15;2.92;;;26.20;91.60;;;;;;5041712;28;20046;-62
2023/07/08 09:31:30;;;;;;;5.85;3.28;;;26.30;92.00;;;;;;5034973;28;20033;-62
2023/07/08 09:34:07;;;;;;;4.68;3.38;;;26.50;91.80;;;;;;5036957;28;20053;-62
2023/07/08 09:36:33;;;;;;;5.38;3.63;;;26.50;91.70;;;;;;5043162;28;20279;-63
2023/07/08 09:39:00;;;;;;;5.25;3.05;;;26.60;91.50;;;;;;5028698;28;20267;-63
2023/07/08 09:41:34;;;;;;;5.38;3.03;;;26.50;91.10;;;;;;5039796;28;20044;-63
2023/07/08 09:44:12;;;;;;;;;;;26.60;91.70;;;;;;5045528;28;20048;-62
2023/07/08 09:46:38;;;;;;;4.50;2.90;;;26.80;91.10;;;;;;5042777;28;20382;-63
2023/07/08 09:49:36;;;;;;;3.80;3.05;;;26.80;91.10;;;;;;5047379;28;20127;-62
2023/07/08 09:52:02;;;;;;;4.93;3.30;;;26.90;90.80;;;;;;5046224;28;20044;-63
2023/07/08 09:54:30;;;;;;;6.20;3.72;;;27.00;91.30;;;;;;5037892;28;20049;-63
2023/07/08 09:57:01;;;;;;;6.88;2.72;;;27.10;90.20;;;;;;5027393;28;20037;-63
2023/07/08 09:59:42;;;;;;;3.90;3.17;;;27.10;90.70;;;;;;5043299;28;20056;-63
2023/07/08 10:02:30;;;;;;;4.80;2.83;;;27.20;91.50;;;;;;5046366;28;20042;-62
2023/07/08 10:04:59;;;;;;;6.10;3.47;;;27.40;90.50;;;;;;5045573;28;20545;-60
2023/07/08 10:07:31;;;;;;;10.15;3.90;;;27.40;90.80;;;;;;5040103;28;20073;-63
2023/07/08 10:10:02;;;;;;;7.78;3.38;;;27.50;90.70;;;;;;5048427;28;20396;-62
2023/07/08 10:12:29;;;;;;;4.40;3.33;;;27.60;90.40;;;;;;5038924;28;20045;-62
2023/07/08 10:15:02;;;;;;;5.38;3.20;;;27.70;91.10;;;;;;5036834;28;20565;-63
2023/07/08 10:17:30;;;;;;;4.82;3.88;;;27.90;91.40;;;;;;5040434;28;20129;-62
2023/07/08 10:19:55;;;;;;;6.60;3.38;;;28.00;90.60;;;;;;5045383;28;20493;-63
2023/07/08 10:22:33;;;;;;;5.90;3.22;;;28.10;90.20;;;;;;5038371;28;20073;-63
2023/07/08 10:25:29;;;;;;;5.50;3.38;;;28.20;89.90;;;;;;5033386;28;20029;-61
2023/07/08 10:27:58;;;;;;;7.78;3.15;;;28.20;90.40;;;;;;5044573;28;20037;-61
2023/07/08 10:30:33;;;;;;;10.82;3.78;;;28.20;90.80;;;;;;5037219;28;20466;-61
2023/07/08 10:33:20;;;;;;;9.00;4.15;;;28.30;90.20;;;;;;5037424;28;20037;-61
2023/07/08 10:36:40;;;;;;;5.72;4.05;;;28.60;90.40;;;;;;5043074;28;20037;-61
2023/07/08 10:39:15;;;;;;;5.53;3.80;;;28.80;90.40;;;;;;4951227;28;20047;-63
2023/07/08 10:41:58;;;;;;;9.85;3.80;;;28.70;90.10;;;;;;4940779;28;20580;-61
2023/07/08 10:44:45;;;;;;;7.03;3.55;;;28.80;90.60;;;;;;5021393;28;20152;-61
2023/07/08 10:47:54;;;;;;;5.78;3.13;;;28.90;90.30;;;;;;5021546;28;20148;-61
2023/07/08 10:50:29;;;;;;;5.35;3.50;;;29.00;90.30;;;;;;5044029;28;20048;-64
2023/07/08 10:53:35;;;;;;;4.65;3.10;;;29.00;90.40;;;;;;5036533;28;20033;-61
2023/07/08 10:56:23;;;;;;;5.57;3.70;;;29.20;90.40;;;;;;5031574;28;20053;-61
2023/07/08 10:59:13;;;;;;;5.82;3.10;;;29.40;90.10;;;;;;5037774;28;20523;-62
2023/07/08 11:02:08;;;;;;;4.93;3.38;;;29.40;90.00;;;;;;5046483;28;20051;-62
2023/07/08 11:05:03;;;;;;;3.92;3.20;;;29.50;88.80;;;;;;5037713;28;20039;-61
2023/07/08 11:07:39;;;;;;;5.82;3.05;;;29.60;90.10;;;;;;5032653;28;20056;-61
2023/07/08 11:10:13;;;;;;;8.55;3.38;;;29.60;87.90;;;;;;5045010;28;20484;-61
2023/07/08 11:13:14;;;;;;;7.38;3.38;;;29.70;86.70;;;;;;5038567;28;20057;-61
2023/07/08 11:15:56;;;;;;;6.43;3.47;;;29.80;87.70;;;;;;5015354;28;20137;-61
2023/07/08 11:18:36;;;;;;;7.88;3.78;;;29.80;86.50;;;;;;5037679;28;20045;-61
2023/07/08 11:21:13;;;;;;;5.97;3.30;;;29.80;87.00;;;;;;5039934;28;20115;-61
2023/07/08 11:23:44;;;;;;;5.40;3.47;;;29.90;87.60;;;;;;5037191;28;20037;-61
2023/07/08 11:26:37;;;;;;;5.80;3.88;;;30.10;86.90;;;;;;5039813;28;20044;-61
2023/07/08 11:29:10;;;;;;;4.38;3.33;;;30.20;84.70;;;;;;5044295;28;20041;-62
2023/07/08 11:31:36;;;;;;;6.50;3.42;;;30.30;85.60;;;;;;5039028;28;20044;-61
2023/07/08 11:34:03;;;;;;;6.45;3.47;;;30.40;85.90;;;;;;5045758;28;20505;-61
2023/07/08 11:36:30;;;;;;;4.63;3.33;;;30.30;83.20;;;;;;5035797;28;20619;-60
2023/07/08 11:38:57;;;;;;;6.45;3.80;;;30.30;81.10;;;;;;5041745;28;20041;-61
2023/07/08 11:41:31;;;;;;;7.07;3.38;;;30.30;83.20;;;;;;5044471;28;20075;-61
2023/07/08 11:43:59;;;;;;;5.82;3.63;;;30.50;81.10;;;;;;5040247;28;20033;-61
2023/07/08 11:46:31;;;;;;;6.55;3.17;;;30.50;81.30;;;;;;5043913;28;20037;-61
2023/07/08 11:49:04;;;;;;;4.47;3.55;;;30.60;82.40;;;;;;5058228;28;20455;-61
2023/07/08 11:51:33;;;;;;;4.57;2.95;;;30.80;82.60;;;;;;5051512;28;20113;-61
2023/07/08 11:54:19;;;;;;;4.90;3.55;;;31.00;82.60;;;;;;5037975;28;20037;-61
2023/07/08 11:56:56;;;;;;;5.70;3.53;;;31.00;79.50;;;;;;5038664;28;20124;-61
2023/07/08 11:59:29;;;;;;;6.53;3.88;;;31.00;80.00;;;;;;5029629;28;20049;-62
2023/07/08 12:02:19;;;;;;;6.40;3.50;;;31.10;81.00;;;;;;5043835;28;20032;-61
2023/07/08 12:05:00;;;;;;;5.85;3.60;;;31.00;79.20;;;;;;5039078;28;20554;-62
2023/07/08 12:07:40;;;;;;;5.18;3.60;;;31.10;79.40;;;;;;5043526;28;20102;-62
2023/07/08 12:10:18;;;;;;;7.25;3.40;;;31.10;79.00;;;;;;5039451;28;20044;-62
2023/07/08 12:12:46;;;;;;;3.47;3.00;;;31.20;80.10;;;;;;5039151;28;20040;-62
2023/07/08 12:15:32;;;;;;;5.43;3.50;;;31.10;78.20;;;;;;5038885;28;20068;-62
2023/07/08 12:18:30;;;;;;;9.25;4.03;;;31.20;75.20;;;;;;5044313;28;20046;-62
2023/07/08 12:20:59;;;;;;;5.57;3.50;;;31.20;78.00;;;;;;5035076;28;20040;-61
2023/07/08 12:23:26;;;;;;;5.85;3.92;;;31.30;76.90;;;;;;5047511;28;20103;-61
2023/07/08 12:25:53;;;;;;;5.47;3.47;;;31.20;75.70;;;;;;5046440;28;20734;-61
2023/07/08 12:28:20;;;;;;;5.10;3.00;;;31.20;75.30;;;;;;5029258;28;20408;-62
2023/07/08 12:30:48;;;;;;;4.13;3.60;;;31.10;77.70;;;;;;5037728;28;20449;-62
2023/07/08 12:33:18;;;;;;;5.20;3.40;;;31.30;77.30;;;;;;5043607;28;20170;-61
2023/07/08 12:35:45;;;;;;;5.93;3.63;;;31.40;75.80;;;;;;5035467;28;20091;-61
2023/07/08 12:38:28;;;;;;;8.90;3.75;;;31.40;75.60;;;;;;5039834;28;20037;-62
2023/07/08 12:41:12;;;;;;;4.90;3.60;;;31.40;74.50;;;;;;5041703;28;20041;-62
2023/07/08 12:43:38;;;;;;;5.30;3.72;;;31.50;74.30;;;;;;5041690;28;20047;-62
2023/07/08 12:46:04;;;;;;;6.65;3.40;;;31.60;75.70;;;;;;5043668;28;20402;-61
2023/07/08 12:48:40;;;;;;;5.45;3.58;;;31.80;76.50;;;;;;5020135;28;20079;-63
2023/07/08 12:51:12;;;;;;;5.38;3.70;;;31.90;76.30;;;;;;5041552;28;20033;-62
2023/07/08 12:53:37;;;;;;;5.43;3.70;;;32.00;77.50;;;;;;5025764;28;20045;-61
2023/07/08 12:56:04;;;;;;;6.18;4.00;;;32.10;76.80;;;;;;5044059;28;20034;-61
2023/07/08 12:58:33;;;;;;;5.20;3.38;;;32.10;75.80;;;;;;5040683;28;20049;-61
2023/07/08 13:01:03;;;;;;;4.28;3.58;;;32.20;76.00;;;;;;5042854;28;20532;-63